Private Wetterstation Grnau im Almtal
www.gruenau.tv

Wetterdaten: aktuell Dienstag, 05.07.2022 15:15
Datum Zeit Temperatur Temp. min Temp. max Luftfeuchte Luftdruck Regen Wind Richtung Richtung Sonne ET UV Solar Taupunkt Windchill Windben
05.07.2022 15:15 19,4 C 19,4 C 20,0 C 80 % 1018,1 hPa 4,0 l/m 7,2 km/h (2 Bft) NW 324 0 min 0,203 mm 0,7 UV-I 79 W/m 15,9 C 19,1 C 14,5 km/h (3 Bft)
05.07.2022 14:15 22,8 C 22,7 C 22,8 C 66 % 1017,2 hPa 0,0 l/m 6,5 km/h (2 Bft) W-NW 284 35 min 0,355 mm 4,9 UV-I 315 W/m 16,1 C 22,8 C 11,3 km/h (2 Bft)
05.07.2022 13:15 22,3 C 21,9 C 22,3 C 68 % 1017,6 hPa 0,0 l/m 10,5 km/h (2 Bft) NW 307 15 min 0,305 mm 4,9 UV-I 965 W/m 16,1 C 21,0 C 17,7 km/h (3 Bft)
05.07.2022 12:15 22,2 C 22,1 C 22,4 C 71 % 1017,9 hPa 0,0 l/m 1,5 km/h (1 Bft) W-NW 297 45 min 0,483 mm 7,3 UV-I 246 W/m 16,7 C 22,2 C 4,8 km/h (1 Bft)
05.07.2022 11:15 20,3 C 20,1 C 20,4 C 78 % 1018,2 hPa 0,0 l/m 3,6 km/h (1 Bft) SW 216 50 min 0,406 mm 4,5 UV-I 427 W/m 16,3 C 20,3 C 6,4 km/h (2 Bft)
05.07.2022 10:15 17,9 C 17,7 C 17,9 C 68 % 1018,5 hPa 0,0 l/m 2,3 km/h (1 Bft) SO 124 15 min 0,102 mm 4,8 UV-I 747 W/m 11,9 C 17,9 C 4,8 km/h (1 Bft)
05.07.2022 09:15 16,3 C 16,2 C 16,3 C 69 % 1018,7 hPa 0,2 l/m 0,0 km/h (0 Bft) SO 137 0 min 0,025 mm 0,8 UV-I 111 W/m 10,6 C 16,3 C 0,0 km/h (0 Bft)
05.07.2022 08:15 16,0 C 16,0 C 16,1 C 70 % 1018,4 hPa 1,4 l/m 0,0 km/h (0 Bft) SO 137 0 min 0,026 mm 0,0 UV-I 9 W/m 10,5 C 16,0 C 0,0 km/h (0 Bft)
05.07.2022 07:15 15,8 C 15,7 C 15,8 C 73 % 1018,2 hPa 1,8 l/m 0,0 km/h (0 Bft) SO 137 0 min 0,000 mm 0,0 UV-I 19 W/m 11,0 C 15,8 C 0,0 km/h (0 Bft)
05.07.2022 06:15 16,2 C 16,1 C 16,2 C 75 % 1017,9 hPa 3,4 l/m 1,2 km/h (1 Bft) SO 137 0 min 0,000 mm 0,0 UV-I 11 W/m 11,8 C 16,2 C 4,8 km/h (1 Bft)
05.07.2022 05:15 16,7 C 16,7 C 16,8 C 80 % 1017,7 hPa 8,6 l/m 0,0 km/h (0 Bft) W-SW 257 0 min 0,000 mm 0,0 UV-I 0 W/m 13,2 C 16,7 C 0,0 km/h (0 Bft)
05.07.2022 04:15 18,0 C 18,0 C 18,0 C 81 % 1016,9 hPa 0,0 l/m 2,5 km/h (1 Bft) NW 317 0 min 0,000 mm 0,0 UV-I 0 W/m 14,7 C 18,0 C 4,8 km/h (1 Bft)
05.07.2022 03:15 18,0 C 18,0 C 18,0 C 80 % 1016,6 hPa 0,0 l/m 0,0 km/h (0 Bft) SO 137 0 min 0,000 mm 0,0 UV-I 0 W/m 14,5 C 18,0 C 0,0 km/h (0 Bft)
05.07.2022 02:15 17,6 C 17,6 C 17,6 C 78 % 1016,7 hPa 0,0 l/m 1,7 km/h (1 Bft) S-SW 193 0 min 0,000 mm 0,0 UV-I 0 W/m 13,7 C 17,6 C 4,8 km/h (1 Bft)
05.07.2022 01:15 17,6 C 17,6 C 17,6 C 79 % 1016,8 hPa 0,0 l/m 0,0 km/h (0 Bft) O-NO 70 0 min 0,025 mm 0,0 UV-I 0 W/m 13,9 C 17,6 C 0,0 km/h (0 Bft)
05.07.2022 00:15 17,8 C 17,8 C 17,8 C 80 % 1016,1 hPa 0,0 l/m 4,6 km/h (1 Bft) SO 137 0 min 0,000 mm 0,0 UV-I 0 W/m 14,3 C 17,8 C 9,7 km/h (2 Bft)
04.07.2022 23:15 18,2 C 18,2 C 18,2 C 81 % 1016,3 hPa 0,0 l/m 2,1 km/h (1 Bft) S-SO 164 0 min 0,026 mm 0,0 UV-I 0 W/m 14,9 C 18,2 C 4,8 km/h (1 Bft)
04.07.2022 22:15 19,3 C 19,3 C 19,4 C 81 % 1016,3 hPa 0,0 l/m 1,0 km/h (0 Bft) SO 128 0 min 0,025 mm 0,0 UV-I 0 W/m 16,0 C 19,3 C 4,8 km/h (1 Bft)
04.07.2022 21:15 20,0 C 20,0 C 20,2 C 81 % 1015,9 hPa 0,0 l/m 4,4 km/h (1 Bft) S-SO 158 0 min 0,025 mm 0,0 UV-I 0 W/m 16,6 C 20,0 C 11,3 km/h (2 Bft)
04.07.2022 20:10 22,2 C 22,2 C 22,3 C 76 % 1015,5 hPa 0,0 l/m 1,6 km/h (1 Bft) S 184 35 min 0,102 mm 0,0 UV-I 56 W/m 17,8 C 22,2 C 3,2 km/h (1 Bft)
04.07.2022 19:10 23,4 C 23,4 C 23,5 C 71 % 1015,1 hPa 0,0 l/m 4,8 km/h (1 Bft) O 94 45 min 0,203 mm 0,5 UV-I 134 W/m 17,8 C 23,4 C 9,7 km/h (2 Bft)
04.07.2022 18:10 22,4 C 22,2 C 22,4 C 77 % 1015,6 hPa 0,0 l/m 5,2 km/h (1 Bft) O 84 5 min 0,102 mm 1,1 UV-I 248 W/m 18,2 C 22,4 C 12,9 km/h (3 Bft)
04.07.2022 17:10 21,9 C 21,9 C 22,1 C 81 % 1016,4 hPa 0,2 l/m 3,1 km/h (1 Bft) SO 127 0 min 0,051 mm 0,8 UV-I 134 W/m 18,5 C 21,9 C 6,4 km/h (2 Bft)
04.07.2022 16:10 23,2 C 23,2 C 23,2 C 77 % 1016,7 hPa 0,0 l/m 0,0 km/h (0 Bft) W 280 0 min 0,127 mm 0,9 UV-I 113 W/m 18,9 C 23,2 C 0,0 km/h (0 Bft)
04.07.2022 16:00 23,3 C 23,3 C 23,4 C 76 % 1016,6 hPa 0,0 l/m 1,2 km/h (1 Bft) W 280 0 min 0,127 mm 0,8 UV-I 90 W/m 18,8 C 23,3 C 4,8 km/h (1 Bft)
_ Min-Zeit 07:15 07:15 07:10 13:35 18:50 - 16:10 - - - - - - 08:45 07:05 16:10
Minimum _ 15,7 C 15,7 C 15,8 C 63 % 1015,1 hPa - 0,0 km/h (0 Bft) - - - - - - 10,2 C 15,8 C 0,0 km/h (0 Bft)
_ Max-Zeit 19:30 19:35 19:30 22:25 09:15 15:05 13:15 - - 18:10 12:00 13:25 12:30 16:45 19:30 13:05
Maximum _ 24,2 C 23,8 C 24,2 C 82 % 1018,7 hPa 2,2 l/m 10,5 km/h
NW (2 Bft)
- - 5 min 0,483 mm 8,5 UV-I 1086 W/m 19,3 C 24,2 C 24,1 km/h
NW (4 Bft)
Durchschnitt _ 19,8 C 19,7 C 19,8 C 76 % 1017,0 hPa #19,6 l/m 2,6 km/h (1 Bft) SO - #2:40 h #1,930 mm 4,4 UV-I 345 W/m 15,3 C 19,7 C 6,3 km/h (2 Bft)
Rauscher Max - www.gruenau.tv